createdAt,value
2024-05-09T00:02:27.899Z,10.85
2024-05-09T00:07:30.931Z,10.85
2024-05-09T00:12:33.902Z,10.78
2024-05-09T00:17:37.140Z,10.46
2024-05-09T00:22:40.104Z,10.57
2024-05-09T00:27:43.065Z,10.67
2024-05-09T00:32:46.071Z,10.51
2024-05-09T00:37:49.234Z,10.24
2024-05-09T00:42:52.176Z,10.06
2024-05-09T00:47:55.844Z,10.15
2024-05-09T00:52:59.028Z,10.22
2024-05-09T00:58:02.921Z,10.19
2024-05-09T01:03:06.260Z,10.09
2024-05-09T01:08:10.523Z,9.93
2024-05-09T01:13:13.701Z,10.03
2024-05-09T01:18:16.944Z,10.13
2024-05-09T01:23:19.991Z,10.18
2024-05-09T01:28:22.831Z,10.19
2024-05-09T01:33:26.088Z,9.98
2024-05-09T01:38:29.329Z,9.76
2024-05-09T01:43:32.418Z,9.49
2024-05-09T01:48:35.386Z,9.51
2024-05-09T01:53:38.464Z,9.54
2024-05-09T01:58:41.671Z,9.41
2024-05-09T02:03:47.910Z,9.45
2024-05-09T02:08:50.975Z,9.54
2024-05-09T02:13:54.181Z,9.48
2024-05-09T02:18:57.199Z,9.26
2024-05-09T02:24:00.838Z,9.29
2024-05-09T02:29:03.953Z,9.29
2024-05-09T02:34:06.935Z,9.08
2024-05-09T02:39:09.990Z,8.83
2024-05-09T02:44:13.012Z,8.18
2024-05-09T02:49:16.382Z,8.42
2024-05-09T02:54:19.366Z,8.61
2024-05-09T02:59:22.546Z,8.78
2024-05-09T03:04:25.746Z,8.62
2024-05-09T03:09:29.256Z,8.39
2024-05-09T03:14:32.206Z,8.37
2024-05-09T03:19:36.508Z,8.31
2024-05-09T03:24:39.554Z,8.32
2024-05-09T03:29:42.836Z,8.55
2024-05-09T03:34:45.858Z,8.70
2024-05-09T03:39:48.972Z,8.63
2024-05-09T03:44:52.660Z,8.57
2024-05-09T03:49:55.875Z,8.65
2024-05-09T03:54:58.868Z,8.64
2024-05-09T04:00:02.870Z,8.78
2024-05-09T04:05:07.476Z,8.77
2024-05-09T04:10:17.116Z,8.96
2024-05-09T04:15:26.973Z,9.21
2024-05-09T04:20:37.704Z,9.37
2024-05-09T04:25:45.117Z,9.58
2024-05-09T04:30:48.684Z,9.97
2024-05-09T04:35:51.689Z,10.34
2024-05-09T04:40:54.639Z,10.90
2024-05-09T04:45:57.711Z,12.45
2024-05-09T04:51:01.990Z,14.29
2024-05-09T04:56:06.436Z,15.82
2024-05-09T05:01:09.390Z,16.93
2024-05-09T05:06:12.307Z,17.13
2024-05-09T05:11:15.238Z,17.58
2024-05-09T05:16:18.460Z,16.81
2024-05-09T05:21:21.618Z,17.13
2024-05-09T05:26:25.762Z,17.47
2024-05-09T05:31:30.858Z,17.68
2024-05-09T05:36:33.717Z,17.77
2024-05-09T05:41:36.778Z,17.73
2024-05-09T05:46:40.152Z,17.74
2024-05-09T05:51:43.099Z,17.58
2024-05-09T05:56:46.099Z,18.39
2024-05-09T06:01:49.424Z,18.98
2024-05-09T06:06:52.369Z,19.42
2024-05-09T06:11:55.259Z,19.95
2024-05-09T06:16:58.565Z,19.54
2024-05-09T06:22:03.034Z,19.12
2024-05-09T06:27:06.205Z,18.49
2024-05-09T06:32:09.226Z,19.04
2024-05-09T06:37:12.249Z,19.65
2024-05-09T06:42:15.238Z,18.54
2024-05-09T06:47:18.213Z,18.58
2024-05-09T06:52:21.371Z,18.28
2024-05-09T06:57:24.397Z,18.28
2024-05-09T07:02:28.058Z,18.93
2024-05-09T07:07:31.034Z,18.94
2024-05-09T07:12:34.049Z,18.73
2024-05-09T07:17:38.228Z,19.22
2024-05-09T07:22:41.474Z,18.13
2024-05-09T07:27:44.365Z,18.08
2024-05-09T07:32:47.760Z,18.50
2024-05-09T07:37:51.478Z,18.83
2024-05-09T07:42:54.422Z,18.80
2024-05-09T07:49:44.283Z,17.82
2024-05-09T07:53:38.588Z,18.82
2024-05-09T07:58:44.185Z,18.72
2024-05-09T08:03:47.359Z,19.38
2024-05-09T08:08:50.851Z,19.44
2024-05-09T08:13:53.761Z,20.26
2024-05-09T08:18:56.908Z,20.26
2024-05-09T08:23:59.976Z,19.89
2024-05-09T08:29:03.412Z,20.42
2024-05-09T08:34:07.083Z,20.47
2024-05-09T08:39:10.447Z,20.75
2024-05-09T08:44:13.798Z,20.37
2024-05-09T08:49:17.007Z,20.34
2024-05-09T08:54:21.317Z,19.49
2024-05-09T08:59:28.094Z,19.35
2024-05-09T09:04:31.486Z,19.45
2024-05-09T09:09:35.711Z,19.50
2024-05-09T09:14:38.700Z,19.84
2024-05-09T09:19:42.644Z,19.98
2024-05-09T09:24:45.843Z,19.74
2024-05-09T09:29:49.145Z,19.48
2024-05-09T09:34:52.181Z,19.61
2024-05-09T09:39:55.226Z,20.06
2024-05-09T09:45:04.672Z,19.28
2024-05-09T09:50:14.331Z,19.29
2024-05-09T09:55:22.168Z,19.69
2024-05-09T10:00:32.449Z,19.50
2024-05-09T10:05:37.238Z,19.72
2024-05-09T10:10:46.868Z,19.62
2024-05-09T10:15:54.521Z,19.62
2024-05-09T10:20:59.406Z,19.73
2024-05-09T10:26:05.233Z,19.22
2024-05-09T10:31:13.906Z,19.04
2024-05-09T10:36:27.372Z,19.03
2024-05-09T10:41:30.371Z,19.34
2024-05-09T10:46:33.389Z,19.17
2024-05-09T10:51:37.298Z,19.28
2024-05-09T10:56:42.007Z,19.26
2024-05-09T11:01:45.132Z,19.14
2024-05-09T11:06:48.293Z,19.43
2024-05-09T11:11:51.482Z,19.79
2024-05-09T11:17:01.998Z,19.81
2024-05-09T11:22:05.382Z,19.30
2024-05-09T11:27:08.245Z,19.47
2024-05-09T11:32:13.660Z,19.58
2024-05-09T11:37:16.776Z,19.72
2024-05-09T11:42:20.929Z,19.97
2024-05-09T11:47:24.757Z,19.89
2024-05-09T11:52:27.875Z,19.87
2024-05-09T11:57:30.819Z,19.58
2024-05-09T12:02:34.066Z,19.66
2024-05-09T12:07:37.084Z,19.96
2024-05-09T12:12:39.957Z,20.14
2024-05-09T12:17:43.277Z,20.08
2024-05-09T12:22:47.714Z,19.86
2024-05-09T12:27:51.106Z,19.99
2024-05-09T12:32:54.219Z,19.86
2024-05-09T12:37:57.275Z,20.16
2024-05-09T12:43:00.282Z,20.51
2024-05-09T12:48:04.776Z,20.39
2024-05-09T12:53:07.869Z,20.29
2024-05-09T12:58:11.117Z,19.86
2024-05-09T13:03:15.403Z,19.93
2024-05-09T13:08:18.575Z,19.95
2024-05-09T13:13:21.641Z,19.97
2024-05-09T13:18:25.325Z,19.91
2024-05-09T13:23:28.387Z,19.92
2024-05-09T13:28:33.542Z,20.03
2024-05-09T13:33:36.735Z,19.62
2024-05-09T13:38:39.696Z,19.91
2024-05-09T13:43:42.924Z,19.78
2024-05-09T13:48:45.951Z,20.05
2024-05-09T13:53:49.081Z,20.10
2024-05-09T13:58:52.291Z,20.07
2024-05-09T14:03:55.463Z,20.20
2024-05-09T14:08:58.516Z,20.28
2024-05-09T14:14:01.440Z,20.16
2024-05-09T14:19:04.784Z,20.07
2024-05-09T14:24:07.778Z,20.28
2024-05-09T14:29:10.808Z,20.09
2024-05-09T14:34:14.008Z,20.40
2024-05-09T14:39:17.155Z,20.64
2024-05-09T14:44:20.050Z,20.61
2024-05-09T14:49:23.020Z,20.44
2024-05-09T14:54:25.972Z,20.72
2024-05-09T14:59:29.297Z,20.56
2024-05-09T15:04:32.429Z,20.09
2024-05-09T15:09:36.359Z,20.12
2024-05-09T15:14:39.604Z,20.17
2024-05-09T15:19:45.267Z,20.21
2024-05-09T15:24:48.516Z,20.29
2024-05-09T15:29:51.811Z,20.30
2024-05-09T15:35:02.572Z,20.38
2024-05-09T15:40:12.116Z,20.28
2024-05-09T15:45:18.280Z,20.05
2024-05-09T15:50:28.839Z,20.18
2024-05-09T15:55:39.354Z,20.43
2024-05-09T16:00:44.799Z,20.55
2024-05-09T16:05:50.515Z,20.64
2024-05-09T16:10:53.768Z,20.81
2024-05-09T16:15:57.421Z,20.76
2024-05-09T16:21:01.650Z,20.82
2024-05-09T16:26:05.633Z,20.63
2024-05-09T16:31:08.646Z,20.25
2024-05-09T16:36:11.598Z,19.95
2024-05-09T16:41:15.611Z,20.02
2024-05-09T16:46:18.812Z,20.04
2024-05-09T16:51:22.075Z,19.92
2024-05-09T16:56:26.280Z,19.87
2024-05-09T17:01:30.914Z,19.63
2024-05-09T17:06:34.169Z,19.79
2024-05-09T17:11:37.335Z,19.97
2024-05-09T17:16:40.404Z,19.95
2024-05-09T17:21:43.499Z,20.04
2024-05-09T17:26:46.604Z,20.01
2024-05-09T17:31:49.624Z,19.86
2024-05-09T17:36:52.780Z,19.23
2024-05-09T17:41:55.742Z,19.01
2024-05-09T17:46:58.743Z,18.90
2024-05-09T17:52:01.861Z,18.72
2024-05-09T17:57:08.595Z,18.83
2024-05-09T18:02:11.938Z,18.77
2024-05-09T18:07:15.327Z,18.65
2024-05-09T18:12:18.434Z,18.42
2024-05-09T18:17:23.559Z,18.21
2024-05-09T18:22:28.282Z,17.93
2024-05-09T18:27:31.582Z,17.71
2024-05-09T18:32:34.911Z,17.31
2024-05-09T18:37:42.778Z,16.97
2024-05-09T18:42:45.783Z,16.83
2024-05-09T18:47:49.325Z,16.76
2024-05-09T18:52:52.571Z,16.69
2024-05-09T18:57:55.582Z,16.54
2024-05-09T19:02:58.964Z,16.23
2024-05-09T19:08:02.180Z,16.08
2024-05-09T19:13:10.165Z,15.97
2024-05-09T19:18:25.937Z,15.80
2024-05-09T19:23:32.596Z,15.65
2024-05-09T19:28:41.259Z,15.49
2024-05-09T19:33:44.405Z,15.33
2024-05-09T19:38:51.604Z,15.02
2024-05-09T19:43:55.600Z,14.93
2024-05-09T19:48:58.865Z,14.83
2024-05-09T19:54:04.113Z,14.62
2024-05-09T19:59:07.102Z,14.43
2024-05-09T20:04:10.498Z,14.25
2024-05-09T20:11:08.788Z,13.64
2024-05-09T20:16:12.158Z,13.65
2024-05-09T20:21:15.665Z,13.33
2024-05-09T20:26:19.650Z,13.39
2024-05-09T20:31:25.566Z,13.46
2024-05-09T20:36:28.857Z,13.45
2024-05-09T20:41:33.644Z,13.33
2024-05-09T20:46:38.267Z,13.40
2024-05-09T20:51:41.325Z,13.30
2024-05-09T20:56:44.445Z,13.03
2024-05-09T21:01:49.297Z,12.92
2024-05-09T21:06:52.926Z,12.83
2024-05-09T21:11:56.154Z,12.71
2024-05-09T21:16:59.335Z,12.60
2024-05-09T21:22:03.271Z,12.48
2024-05-09T21:27:06.293Z,12.36
2024-05-09T21:32:11.138Z,12.42
2024-05-09T21:37:16.782Z,12.27
2024-05-09T21:42:20.084Z,12.07
2024-05-09T21:47:23.820Z,12.10
2024-05-09T21:52:27.112Z,12.07
2024-05-09T21:57:30.018Z,11.84
2024-05-09T22:02:37.064Z,11.73
2024-05-09T22:07:40.538Z,11.84
2024-05-09T22:12:43.477Z,11.76
2024-05-09T22:17:46.599Z,11.72
2024-05-09T22:22:49.637Z,11.67
2024-05-09T22:27:53.000Z,11.43
2024-05-09T22:32:56.562Z,11.23
2024-05-09T22:38:00.048Z,11.03
2024-05-09T22:43:04.594Z,11.16
2024-05-09T22:48:09.102Z,11.32
2024-05-09T22:53:12.914Z,11.39
2024-05-09T22:58:16.325Z,11.46
2024-05-09T23:03:21.516Z,11.37
2024-05-09T23:08:25.236Z,11.30
2024-05-09T23:13:28.362Z,11.16
2024-05-09T23:18:31.491Z,10.76
2024-05-09T23:23:34.572Z,10.61
2024-05-09T23:28:37.670Z,10.46
2024-05-09T23:33:47.204Z,10.65
2024-05-09T23:38:50.454Z,10.46
2024-05-09T23:43:53.434Z,10.76
2024-05-09T23:48:56.429Z,10.70
2024-05-09T23:53:59.427Z,10.53
2024-05-09T23:59:02.364Z,9.91
